Time;durP1;ratioP1;P1;durP2;ratioP2;P2;SDS_P1;SDS_P2;PMS_P1;PMS_P2;Temp;Humidity;BMP_temperature;BMP_pressure;BME280_temperature;BME280_humidity;BME280_pressure;Samples;Min_cycle;Max_cycle;Signal;HPM_P1;HPM_P2
2022/01/11 00:04:48;;;;;;;88.73;28.77;;;;;;;-0.41;100.00;97820.63;10454291;28;20202;-61
2022/01/11 00:09:50;;;;;;;95.17;29.53;;;;;;;-0.40;100.00;97809.44;10453693;28;20207;-60
2022/01/11 00:14:50;;;;;;;90.50;29.60;;;;;;;-0.45;100.00;97824.22;10453883;28;20207;-61
2022/01/11 00:19:51;;;;;;;84.07;29.00;;;;;;;-0.44;100.00;97820.75;10448806;28;20227;-61
2022/01/11 00:24:51;;;;;;;72.53;27.57;;;;;;;-0.49;100.00;97832.97;10447224;28;20239;-60
2022/01/11 00:29:54;;;;;;;90.10;29.63;;;;;;;-0.47;100.00;97831.16;10447622;28;20307;-62
2022/01/11 00:34:59;;;;;;;79.53;26.33;;;;;;;-0.52;100.00;97838.25;10429393;28;20574;-62
2022/01/11 00:40:00;;;;;;;89.00;28.93;;;;;;;-0.49;100.00;97842.41;10428594;28;20316;-61
2022/01/11 00:45:07;;;;;;;99.87;29.23;;;;;;;-0.52;100.00;97842.53;10427932;28;20212;-62
2022/01/11 00:50:09;;;;;;;107.30;31.03;;;;;;;-0.52;100.00;97847.69;10452264;28;20213;-64
2022/01/11 00:55:09;;;;;;;104.57;30.73;;;;;;;-0.50;100.00;97859.59;10452955;28;20193;-64
2022/01/11 01:00:11;;;;;;;114.33;31.20;;;;;;;-0.53;100.00;97864.88;10452018;28;20238;-64
2022/01/11 01:05:12;;;;;;;84.03;28.17;;;;;;;-0.45;100.00;97849.94;10452340;28;20743;-64
2022/01/11 01:10:22;;;;;;;95.43;29.07;;;;;;;-0.52;100.00;97863.13;10434426;28;20261;-64
2022/01/11 01:15:23;;;;;;;107.03;30.47;;;;;;;-0.58;100.00;97864.22;10452217;28;20226;-64
2022/01/11 01:20:24;;;;;;;93.27;29.13;;;;;;;-0.62;100.00;97867.78;10438285;28;20213;-64
2022/01/11 01:25:25;;;;;;;105.97;30.73;;;;;;;-0.60;100.00;97863.41;10460353;28;20194;-64
2022/01/11 01:30:25;;;;;;;104.83;30.60;;;;;;;-0.61;100.00;97870.31;10441932;28;20204;-64
2022/01/11 01:35:31;;;;;;;95.60;28.93;;;;;;;-0.58;100.00;97875.34;10442383;28;20650;-64
2022/01/11 01:40:37;;;;;;;102.10;30.70;;;;;;;-0.59;100.00;97868.50;10441891;28;20892;-64
2022/01/11 01:45:38;;;;;;;124.13;29.33;;;;;;;-0.63;100.00;97872.13;10459766;28;20187;-64
2022/01/11 01:50:39;;;;;;;156.83;33.07;;;;;;;-0.69;100.00;97867.16;10459498;28;20211;-62
2022/01/11 01:55:41;;;;;;;212.50;35.07;;;;;;;-0.74;100.00;97869.09;10459483;28;20188;-64
2022/01/11 02:00:46;;;;;;;153.03;33.53;;;;;;;-0.85;100.00;97871.22;10440349;28;20239;-64
2022/01/11 02:05:47;;;;;;;145.37;31.37;;;;;;;-0.81;100.00;97865.91;10441191;28;20757;-62
2022/01/11 02:10:47;;;;;;;207.40;34.20;;;;;;;-0.93;100.00;97868.94;10440669;28;20299;-63
2022/01/11 02:15:50;;;;;;;263.47;34.47;;;;;;;-1.04;100.00;97889.91;10440825;28;20184;-63
2022/01/11 02:20:51;;;;;;;123.00;29.30;;;;;;;-1.03;100.00;97883.03;10458061;28;20220;-63
2022/01/11 02:25:59;;;;;;;87.40;25.30;;;;;;;-1.04;100.00;97896.78;10458124;28;20188;-64
2022/01/11 02:31:03;;;;;;;92.47;27.17;;;;;;;-1.17;100.00;97897.22;10441030;28;20850;-64
2022/01/11 02:36:08;;;;;;;93.73;25.83;;;;;;;-1.20;100.00;97897.31;10440084;28;20188;-63
2022/01/11 02:41:09;;;;;;;114.87;28.57;;;;;;;-1.37;100.00;97905.63;10439655;28;20216;-64
2022/01/11 02:46:10;;;;;;;120.03;29.60;;;;;;;-1.31;100.00;97902.84;10457545;28;20180;-64
2022/01/11 02:51:11;;;;;;;170.90;33.23;;;;;;;-1.34;100.00;97907.25;10439450;28;20199;-64
2022/01/11 02:56:12;;;;;;;176.63;35.40;;;;;;;-1.39;100.00;97904.84;10439298;28;20183;-65
2022/01/11 03:01:13;;;;;;;171.53;36.43;;;;;;;-1.48;100.00;97905.16;10438519;28;20242;-62
2022/01/11 03:06:14;;;;;;;119.13;29.77;;;;;;;-1.67;100.00;97922.91;10456594;28;20187;-63
2022/01/11 03:11:17;;;;;;;156.57;34.47;;;;;;;-1.72;100.00;97923.06;10438476;28;20294;-63
2022/01/11 03:16:20;;;;;;;169.53;33.53;;;;;;;-1.62;100.00;97928.75;10438362;28;20192;-63
2022/01/11 03:21:21;;;;;;;148.27;32.30;;;;;;;-1.60;100.00;97942.38;10455877;28;20223;-64
2022/01/11 03:26:21;;;;;;;133.57;31.43;;;;;;;-1.71;100.00;97939.34;10437958;28;20689;-63
2022/01/11 03:31:23;;;;;;;139.70;32.20;;;;;;;-1.70;100.00;97951.25;10437306;28;20230;-62
2022/01/11 03:36:25;;;;;;;127.43;32.63;;;;;;;-1.87;100.00;97951.81;10437551;28;20270;-63
2022/01/11 03:41:25;;;;;;;117.17;29.90;;;;;;;-1.82;100.00;97942.25;10436499;28;20302;-62
2022/01/11 03:46:26;;;;;;;102.47;28.83;;;;;;;-1.87;100.00;97968.09;10455117;28;20196;-64
2022/01/11 03:51:27;;;;;;;122.37;27.37;;;;;;;-1.97;100.00;97964.94;10420406;28;20204;-63
2022/01/11 03:56:30;;;;;;;93.23;24.93;;;;;;;-1.97;100.00;97970.06;10435757;28;20261;-63
2022/01/11 04:01:53;;;;;;;80.13;23.77;;;;;;;-2.04;100.00;97966.00;10515670;22;20242;-59
2022/01/11 04:06:54;;;;;;;80.03;25.27;;;;;;;-2.02;100.00;97965.97;10516531;28;20694;-60
2022/01/11 04:11:55;;;;;;;92.73;26.67;;;;;;;-2.20;100.00;97973.34;10517542;28;20719;-59
2022/01/11 04:16:56;;;;;;;91.90;28.10;;;;;;;-2.16;100.00;97980.09;10518645;28;20187;-60
2022/01/11 04:21:57;;;;;;;82.37;27.07;;;;;;;-2.32;100.00;97978.84;10518673;28;20598;-57
2022/01/11 04:26:58;;;;;;;104.53;30.10;;;;;;;-2.37;100.00;97983.28;10518704;28;20186;-61
2022/01/11 04:31:59;;;;;;;90.53;28.40;;;;;;;-2.37;100.00;97980.72;10518099;28;20202;-60
2022/01/11 04:36:59;;;;;;;88.07;29.07;;;;;;;-2.30;100.00;97983.94;10535893;28;20248;-60
2022/01/11 04:42:01;;;;;;;95.50;29.23;;;;;;;-2.29;100.00;97978.75;10517250;28;20223;-58
2022/01/11 04:47:02;;;;;;;102.23;30.50;;;;;;;-2.20;100.00;97975.09;10517972;28;20194;-60
2022/01/11 04:52:02;;;;;;;90.97;30.57;;;;;;;-2.34;100.00;97978.06;10517607;28;20692;-61
2022/01/11 04:57:04;;;;;;;99.13;30.37;;;;;;;-2.37;100.00;97973.03;10535721;28;20195;-58
2022/01/11 05:02:05;;;;;;;89.47;28.00;;;;;;;-2.36;100.00;97974.69;10517041;28;20647;-58
2022/01/11 05:07:06;;;;;;;86.77;28.27;;;;;;;-2.35;100.00;97971.25;10535548;28;20261;-62
2022/01/11 05:12:07;;;;;;;90.20;26.60;;;;;;;-2.37;100.00;97978.16;10535584;28;20285;-60
2022/01/11 05:17:07;;;;;;;68.23;24.57;;;;;;;-2.41;100.00;97984.25;10535488;28;20209;-60
2022/01/11 05:22:08;;;;;;;69.90;25.00;;;;;;;-2.47;100.00;97989.56;10517092;28;20730;-61
2022/01/11 05:27:08;;;;;;;73.97;24.70;;;;;;;-2.51;100.00;97994.78;10535459;28;20240;-59
2022/01/11 05:32:09;;;;;;;94.63;30.23;;;;;;;-2.62;100.00;97995.97;10516972;28;20214;-61
2022/01/11 05:37:10;;;;;;;93.57;28.20;;;;;;;-2.65;100.00;98007.13;10517092;28;20542;-61
2022/01/11 05:42:11;;;;;;;81.63;28.50;;;;;;;-2.65;100.00;98008.88;10534934;28;20238;-60
2022/01/11 05:47:12;;;;;;;82.53;29.73;;;;;;;-2.67;100.00;98015.78;10516744;28;20195;-60
2022/01/11 05:52:12;;;;;;;86.90;27.83;;;;;;;-2.65;100.00;98021.69;10516679;28;20289;-61
2022/01/11 05:57:13;;;;;;;74.97;28.37;;;;;;;-2.72;100.00;98016.75;10534648;28;20191;-60
2022/01/11 06:02:14;;;;;;;74.73;27.83;;;;;;;-2.76;100.00;98022.81;10515773;28;20227;-60
2022/01/11 06:07:14;;;;;;;68.23;24.97;;;;;;;-2.90;100.00;98022.38;10521275;28;20182;-61
2022/01/11 06:12:15;;;;;;;67.33;26.33;;;;;;;-2.75;100.00;98023.69;10523690;28;20752;-60
2022/01/11 06:17:16;;;;;;;72.67;28.73;;;;;;;-2.77;100.00;98035.69;10524550;28;20216;-64
2022/01/11 06:22:16;;;;;;;89.40;30.10;;;;;;;-2.82;100.00;98032.41;10524271;28;20229;-64
2022/01/11 06:27:17;;;;;;;71.83;27.47;;;;;;;-2.84;100.00;98031.63;10524022;28;20197;-61
2022/01/11 06:32:18;;;;;;;79.23;30.50;;;;;;;-2.87;100.00;98043.63;10524103;28;20351;-62
2022/01/11 06:37:18;;;;;;;77.80;28.23;;;;;;;-2.84;100.00;98052.16;10542100;28;20261;-61
2022/01/11 06:42:19;;;;;;;63.70;25.27;;;;;;;-2.87;100.00;98051.31;10523862;28;20365;-61
2022/01/11 06:47:20;;;;;;;78.40;28.67;;;;;;;-2.98;100.00;98062.75;10541142;28;20611;-60
2022/01/11 06:52:21;;;;;;;69.53;27.97;;;;;;;-3.01;100.00;98073.91;10522598;28;20206;-60
2022/01/11 06:57:25;;;;;;;74.30;28.33;;;;;;;-2.96;100.00;98077.19;10522168;28;20198;-59
2022/01/11 07:02:25;;;;;;;74.63;28.50;;;;;;;-3.00;100.00;98080.75;10520954;28;20241;-61
2022/01/11 07:07:35;;;;;;;81.47;30.53;;;;;;;-3.04;100.00;98081.69;10481932;28;20187;-61
2022/01/11 07:12:35;;;;;;;67.97;27.77;;;;;;;-2.98;100.00;98088.41;10478786;28;20210;-60
2022/01/11 07:17:36;;;;;;;73.67;29.17;;;;;;;-3.00;100.00;98095.25;10478989;28;20197;-59
2022/01/11 07:22:37;;;;;;;78.40;30.00;;;;;;;-3.04;100.00;98112.44;10479427;28;20707;-56
2022/01/11 07:27:38;;;;;;;76.33;29.83;;;;;;;-2.96;100.00;98102.84;10479604;28;20724;-61
2022/01/11 07:32:39;;;;;;;76.73;28.47;;;;;;;-2.85;100.00;98112.81;10477568;28;20200;-61
2022/01/11 07:37:40;;;;;;;77.07;29.97;;;;;;;-3.03;100.00;98123.53;10478925;28;20187;-61
2022/01/11 07:42:44;;;;;;;77.77;28.93;;;;;;;-3.07;100.00;98120.22;10478693;28;20772;-60
2022/01/11 07:47:47;;;;;;;71.67;26.73;;;;;;;-3.18;100.00;98132.47;10478235;28;20192;-61
2022/01/11 07:52:48;;;;;;;67.87;25.30;;;;;;;-3.06;100.00;98130.44;10495200;28;20211;-61
2022/01/11 07:57:48;;;;;;;77.50;28.80;;;;;;;-3.17;100.00;98140.09;10476525;28;20274;-61
2022/01/11 08:02:49;;;;;;;66.23;27.30;;;;;;;-3.10;100.00;98146.75;10450766;28;20605;-61
2022/01/11 08:08:03;;;;;;;77.57;29.77;;;;;;;-3.01;100.00;98143.13;10449078;28;20187;-59
2022/01/11 08:13:05;;;;;;;69.83;27.27;;;;;;;-3.02;100.00;98141.44;10451271;28;20204;-61
2022/01/11 08:18:08;;;;;;;63.13;26.10;;;;;;;-2.80;100.00;98148.59;10451489;28;20220;-61
2022/01/11 08:23:09;;;;;;;74.17;27.63;;;;;;;-2.84;100.00;98152.16;10450639;28;20223;-61
2022/01/11 08:28:10;;;;;;;62.83;25.97;;;;;;;-2.87;100.00;98158.19;10448349;28;20192;-59
2022/01/11 08:33:12;;;;;;;63.67;24.30;;;;;;;-2.58;100.00;98154.88;10450212;28;20229;-60
2022/01/11 08:38:15;;;;;;;61.00;25.07;;;;;;;-2.54;100.00;98153.94;10450489;28;20291;-61
2022/01/11 08:43:17;;;;;;;61.67;24.57;;;;;;;-2.53;100.00;98163.31;10450162;28;20586;-60
2022/01/11 08:48:18;;;;;;;62.67;25.30;;;;;;;-2.64;100.00;98154.22;10451533;28;20184;-61
2022/01/11 08:53:27;;;;;;;58.10;23.80;;;;;;;-2.44;100.00;98159.66;10450284;28;20208;-60
2022/01/11 08:58:28;;;;;;;60.23;25.33;;;;;;;-2.51;100.00;98161.56;10448974;28;20216;-61
2022/01/11 09:03:29;;;;;;;58.63;24.97;;;;;;;-2.57;100.00;98166.00;10450204;28;20286;-61
2022/01/11 09:08:30;;;;;;;61.83;23.93;;;;;;;-2.54;100.00;98171.06;10449550;28;20187;-61
2022/01/11 09:13:31;;;;;;;55.73;23.17;;;;;;;-2.39;100.00;98167.22;10449782;28;20322;-61
2022/01/11 09:18:32;;;;;;;55.30;22.07;;;;;;;-2.52;100.00;98182.94;10450099;28;20219;-62
2022/01/11 09:23:34;;;;;;;59.23;24.03;;;;;;;-3.46;100.00;98180.03;10448082;28;20771;-60
2022/01/11 09:28:36;;;;;;;64.17;23.23;;;;;;;-3.08;100.00;98180.03;10442809;28;20263;-60
2022/01/11 09:33:37;;;;;;;60.80;22.53;;;;;;;-2.93;100.00;98183.97;10447516;28;20482;-61
2022/01/11 09:38:38;;;;;;;49.67;20.57;;;;;;;-2.64;100.00;98179.88;10447968;28;20215;-61
2022/01/11 09:43:38;;;;;;;53.70;20.60;;;;;;;-2.40;100.00;98176.66;10453693;28;20200;-60
2022/01/11 09:48:43;;;;;;;56.90;22.80;;;;;;;-2.16;100.00;98167.47;10454375;28;20276;-60
2022/01/11 09:53:46;;;;;;;51.00;20.33;;;;;;;-1.92;100.00;98179.69;10455420;28;20204;-60
2022/01/11 09:58:46;;;;;;;55.20;21.43;;;;;;;-2.18;100.00;98182.06;10457527;28;20695;-59
2022/01/11 10:04:14;;;;;;;50.30;21.50;;;;;;;-1.96;100.00;98184.06;10520128;22;20231;-63
2022/01/11 10:09:47;;;;;;;55.13;22.50;;;;;;;-1.84;100.00;98188.88;10491780;28;20183;-60
2022/01/11 10:14:55;;;;;;;52.50;20.80;;;;;;;-1.56;100.00;98193.22;10517832;28;20229;-60
2022/01/11 10:20:16;;;;;;;45.73;20.13;;;;;;;-1.61;100.00;98187.34;10521823;28;20579;-59
2022/01/11 10:25:40;;;;;;;43.00;17.57;;;;;;;-2.20;100.00;98193.28;10524432;28;20217;-60
2022/01/11 10:30:40;;;;;;;41.33;17.17;;;;;;;-2.13;100.00;98184.50;10519106;28;20195;-58
2022/01/11 10:35:44;;;;;;;38.70;16.80;;;;;;;-2.86;100.00;98188.09;10542861;28;20259;-60
2022/01/11 10:41:03;;;;;;;40.10;16.67;;;;;;;-2.64;100.00;98187.56;10580849;28;20222;-60
2022/01/11 10:46:05;;;;;;;44.47;16.23;;;;;;;-2.72;100.00;98191.16;10562417;28;20568;-62
2022/01/11 10:51:13;;;;;;;40.70;18.13;;;;;;;-2.83;100.00;98190.56;10538946;28;20194;-63
2022/01/11 10:56:16;;;;;;;40.90;18.17;;;;;;;-3.35;100.00;98196.88;10478515;28;20218;-61
2022/01/11 11:01:30;;;;;;;46.67;18.07;;;;;;;-2.83;100.00;98200.84;10477101;28;20211;-62
2022/01/11 11:06:31;;;;;;;42.10;16.93;;;;;;;-2.25;100.00;98192.53;10521243;28;20245;-61
2022/01/11 11:11:32;;;;;;;40.47;15.27;;;;;;;-2.25;100.00;98189.97;10560170;28;20190;-61
2022/01/11 11:16:55;;;;;;;34.03;14.63;;;;;;;-2.20;100.00;98185.56;10577670;28;20206;-62
2022/01/11 11:21:57;;;;;;;33.37;14.20;;;;;;;-1.65;100.00;98190.91;10522654;28;20210;-63
2022/01/11 11:26:57;;;;;;;36.67;14.40;;;;;;;-1.26;100.00;98185.47;10511213;28;20190;-63
2022/01/11 11:31:58;;;;;;;34.07;14.77;;;;;;;-1.00;100.00;98183.81;10493721;28;20210;-61
2022/01/11 11:37:04;;;;;;;29.63;14.37;;;;;;;-0.93;100.00;98185.31;10512724;28;20189;-64
2022/01/11 11:42:06;;;;;;;29.30;14.57;;;;;;;-1.15;100.00;98170.56;10581613;28;20312;-58
2022/01/11 11:47:06;;;;;;;31.97;14.07;;;;;;;-0.73;100.00;98161.53;10578541;28;20197;-63
2022/01/11 11:52:19;;;;;;;33.73;14.30;;;;;;;-0.45;100.00;98158.03;10549065;28;20203;-62
2022/01/11 11:57:22;;;;;;;27.67;13.97;;;;;;;-0.72;100.00;98158.91;10552512;28;20281;-62
2022/01/11 12:02:34;;;;;;;26.53;13.00;;;;;;;-1.40;100.00;98173.03;10575873;28;20254;-61
2022/01/11 12:07:46;;;;;;;22.67;11.07;;;;;;;-0.90;100.00;98152.63;10577388;28;20194;-61
2022/01/11 12:12:51;;;;;;;27.13;11.83;;;;;;;-1.06;100.00;98161.69;10576504;28;20217;-61
2022/01/11 12:17:57;;;;;;;24.97;11.63;;;;;;;-0.38;100.00;98129.44;10577766;28;20190;-63
2022/01/11 12:22:58;;;;;;;24.40;11.33;;;;;;;-1.16;100.00;98140.59;10562691;28;20210;-63
2022/01/11 12:28:00;;;;;;;26.70;11.73;;;;;;;0.04;100.00;98129.72;10553449;28;20684;-64
2022/01/11 12:33:16;;;;;;;29.23;12.53;;;;;;;0.06;100.00;98103.00;10538169;28;20363;-64
2022/01/11 12:38:16;;;;;;;25.57;11.40;;;;;;;-0.27;97.98;98090.44;10534074;28;20224;-65
2022/01/11 12:43:37;;;;;;;22.73;10.57;;;;;;;1.05;93.80;98071.59;10541647;28;20225;-65
2022/01/11 12:48:47;;;;;;;29.03;13.23;;;;;;;0.92;99.03;98122.06;10576255;28;20666;-66
2022/01/11 12:53:47;;;;;;;19.10;9.80;;;;;;;2.19;91.67;98075.31;10576284;28;20228;-65
2022/01/11 12:58:47;;;;;;;23.67;11.13;;;;;;;0.62;91.88;98099.13;10576672;28;20231;-65
2022/01/11 13:03:57;;;;;;;19.33;11.00;;;;;;;1.13;95.21;98110.00;10556399;28;20241;-64
2022/01/11 13:08:59;;;;;;;19.10;10.10;;;;;;;1.83;89.78;98068.34;10576251;28;20178;-65
2022/01/11 13:19:31;;;;;;;19.40;10.27;;;;;;;3.66;82.84;98025.81;10584764;28;20221;-64
2022/01/11 13:24:35;;;;;;;22.13;11.63;;;;;;;2.27;82.73;98040.44;10584476;28;20291;-64
2022/01/11 13:29:37;;;;;;;22.67;11.50;;;;;;;1.56;87.18;98099.63;10584602;28;20182;-63
2022/01/11 13:34:38;;;;;;;21.90;11.10;;;;;;;2.17;86.38;98088.31;10584023;28;20210;-64
2022/01/11 13:39:40;;;;;;;19.90;10.80;;;;;;;1.57;88.69;98111.63;10584409;28;20713;-65
2022/01/11 13:44:43;;;;;;;24.37;11.63;;;;;;;1.69;87.00;98082.69;10582202;28;20217;-64
2022/01/11 13:49:48;;;;;;;23.33;11.87;;;;;;;-0.04;92.44;98151.41;10583719;28;20186;-64
2022/01/11 13:54:52;;;;;;;25.03;12.40;;;;;;;0.31;94.41;98148.47;10583854;28;20210;-64
2022/01/11 13:59:57;;;;;;;23.67;12.00;;;;;;;0.88;96.33;98147.13;10583042;28;20222;-66
2022/01/11 14:05:00;;;;;;;23.90;11.53;;;;;;;2.20;92.26;98113.19;10582763;28;20233;-64
2022/01/11 14:10:10;;;;;;;22.67;12.10;;;;;;;0.58;87.79;98074.38;10582903;28;20262;-62
2022/01/11 14:15:11;;;;;;;24.77;13.03;;;;;;;0.40;94.48;98131.78;10582838;28;20217;-61
2022/01/11 14:20:20;;;;;;;22.43;11.53;;;;;;;-0.40;94.49;98131.25;10581179;28;20217;-65
2022/01/11 14:25:33;;;;;;;23.03;11.87;;;;;;;-0.52;100.00;98159.97;10581875;28;20565;-64
2022/01/11 14:30:44;;;;;;;23.50;11.77;;;;;;;-1.21;100.00;98163.06;10582237;28;20230;-63
2022/01/11 14:35:54;;;;;;;25.97;12.50;;;;;;;-1.83;100.00;98169.97;10582216;28;20282;-63
2022/01/11 14:40:59;;;;;;;24.07;11.77;;;;;;;-2.07;100.00;98170.66;10581690;28;20711;-63
2022/01/11 14:46:05;;;;;;;26.00;12.30;;;;;;;-2.37;100.00;98176.59;10581252;28;20636;-65
2022/01/11 14:51:12;;;;;;;26.37;13.20;;;;;;;-2.10;100.00;98181.84;10580498;28;20652;-65
2022/01/11 14:56:19;;;;;;;24.50;11.30;;;;;;;-2.08;100.00;98181.81;10571479;28;20209;-61
2022/01/11 15:01:24;;;;;;;24.67;11.87;;;;;;;-2.28;100.00;98182.34;10536986;28;20226;-63
2022/01/11 15:06:36;;;;;;;137.13;46.73;;;;;;;-2.09;100.00;98182.72;10556640;28;20598;-61
2022/01/11 15:11:39;;;;;;;32.80;15.57;;;;;;;-2.62;100.00;98176.38;10553723;28;20187;-63
2022/01/11 15:16:40;;;;;;;30.00;12.43;;;;;;;-2.49;100.00;98186.34;10554172;28;20195;-62
2022/01/11 15:21:42;;;;;;;37.47;17.07;;;;;;;-2.47;100.00;98171.75;10578514;28;20237;-61
2022/01/11 15:26:43;;;;;;;30.70;14.47;;;;;;;-2.51;100.00;98164.13;10580155;28;20652;-63
2022/01/11 15:31:44;;;;;;;30.37;13.30;;;;;;;-2.55;100.00;98169.38;10579239;28;20182;-62
2022/01/11 15:36:45;;;;;;;32.03;13.63;;;;;;;-2.80;100.00;98172.56;10578982;28;20227;-63
2022/01/11 15:41:45;;;;;;;24.27;10.73;;;;;;;-2.97;100.00;98178.09;10578823;28;20697;-59
2022/01/11 15:46:46;;;;;;;29.97;11.83;;;;;;;-2.99;100.00;98177.25;10578842;28;20197;-61
2022/01/11 15:51:47;;;;;;;32.10;14.10;;;;;;;-3.11;100.00;98175.00;10564318;28;20197;-63
2022/01/11 15:56:49;;;;;;;630.67;243.33;;;;;;;-3.28;100.00;98173.69;10552941;28;20204;-60
2022/01/11 16:01:50;;;;;;;26.87;13.20;;;;;;;-3.12;100.00;98183.56;10546273;28;20222;-62
2022/01/11 16:06:54;;;;;;;36.70;16.73;;;;;;;-3.15;100.00;98181.91;10567883;28;20316;-61
2022/01/11 16:11:54;;;;;;;24.53;12.00;;;;;;;-3.20;100.00;98196.56;10576778;28;20235;-63
2022/01/11 16:16:55;;;;;;;23.23;11.77;;;;;;;-3.10;100.00;98208.28;10577906;28;20560;-62
2022/01/11 16:21:55;;;;;;;24.60;11.50;;;;;;;-2.88;100.00;98208.63;10577117;28;20309;-62
2022/01/11 16:26:56;;;;;;;30.50;13.83;;;;;;;-2.78;100.00;98222.06;10575817;28;20194;-63
2022/01/11 16:31:57;;;;;;;31.53;14.43;;;;;;;-2.62;100.00;98225.13;10576700;28;20273;-62
2022/01/11 16:36:57;;;;;;;38.57;17.47;;;;;;;-2.43;100.00;98233.19;10577059;28;20182;-63
2022/01/11 16:47:16;;;;;;;37.33;16.27;;;;;;;-2.51;100.00;98238.53;10577023;28;20189;-61
2022/01/11 16:52:17;;;;;;;44.73;20.57;;;;;;;-2.64;100.00;98246.56;10576538;28;20197;-60
2022/01/11 16:57:17;;;;;;;39.50;17.20;;;;;;;-2.60;100.00;98243.88;10575192;28;20242;-61
2022/01/11 17:02:18;;;;;;;57.27;25.13;;;;;;;-2.63;100.00;98245.69;10575845;28;20234;-60
2022/01/11 17:07:18;;;;;;;48.67;20.17;;;;;;;-2.44;100.00;98249.47;10576247;28;20708;-62
2022/01/11 17:12:18;;;;;;;47.90;20.10;;;;;;;-2.45;100.00;98242.66;10576259;28;20206;-62
2022/01/11 17:17:19;;;;;;;50.80;21.93;;;;;;;-2.43;100.00;98245.19;10575734;28;20201;-63
2022/01/11 17:22:22;;;;;;;47.00;19.73;;;;;;;-2.41;100.00;98244.25;10576182;28;20374;-62
2022/01/11 17:27:23;;;;;;;47.63;21.53;;;;;;;-2.27;100.00;98246.47;10574058;28;20198;-64
2022/01/11 17:32:24;;;;;;;46.40;23.57;;;;;;;-2.41;100.00;98243.44;10569098;28;20218;-62
2022/01/11 17:37:24;;;;;;;47.43;19.33;;;;;;;-2.42;100.00;98252.00;10552737;28;20201;-62
2022/01/11 17:42:25;;;;;;;34.43;15.60;;;;;;;-2.98;100.00;98250.75;10552493;28;20230;-63
2022/01/11 17:47:25;;;;;;;31.73;17.70;;;;;;;-3.24;100.00;98254.72;10556264;28;20229;-60
2022/01/11 17:52:26;;;;;;;38.30;17.03;;;;;;;-3.08;100.00;98269.75;10551115;28;20343;-62
2022/01/11 17:57:26;;;;;;;29.83;12.50;;;;;;;-2.93;100.00;98266.84;10534564;28;20191;-64
2022/01/11 18:02:27;;;;;;;27.40;13.27;;;;;;;-2.91;100.00;98272.81;10537685;28;20630;-63
2022/01/11 18:07:27;;;;;;;24.47;12.37;;;;;;;-2.98;100.00;98273.81;10546673;28;20247;-60
2022/01/11 18:12:28;;;;;;;22.03;10.53;;;;;;;-3.09;100.00;98274.06;10562014;28;20625;-60
2022/01/11 18:17:31;;;;;;;26.80;13.87;;;;;;;-3.12;100.00;98274.13;10561389;28;20186;-64
2022/01/11 18:22:32;;;;;;;25.50;11.57;;;;;;;-3.23;100.00;98274.34;10562305;28;20248;-60
2022/01/11 18:27:32;;;;;;;19.43;10.33;;;;;;;-3.31;100.00;98271.09;10571912;28;20620;-62
2022/01/11 18:32:34;;;;;;;19.17;11.03;;;;;;;-3.43;100.00;98276.47;10582641;28;20206;-63
2022/01/11 18:37:34;;;;;;;28.83;12.87;;;;;;;-3.37;100.00;98266.09;10582716;28;20190;-62
2022/01/11 18:42:35;;;;;;;27.10;12.57;;;;;;;-3.39;100.00;98272.97;10582353;28;20245;-62
2022/01/11 18:47:36;;;;;;;22.30;10.57;;;;;;;-3.23;100.00;98289.72;10580128;28;20703;-60
2022/01/11 18:52:36;;;;;;;31.73;12.93;;;;;;;-3.31;100.00;98288.19;10557410;28;20207;-62
2022/01/11 18:57:37;;;;;;;24.43;11.23;;;;;;;-3.20;100.00;98296.53;10558463;28;20190;-61
2022/01/11 19:02:37;;;;;;;21.53;10.73;;;;;;;-3.28;100.00;98304.38;10556418;28;20647;-61
2022/01/11 19:07:38;;;;;;;42.07;18.43;;;;;;;-3.25;100.00;98296.63;10555706;28;20210;-61
2022/01/11 19:12:39;;;;;;;31.27;14.40;;;;;;;-3.16;100.00;98302.41;10538850;28;20253;-62
2022/01/11 19:17:40;;;;;;;20.17;9.83;;;;;;;-3.25;100.00;98314.56;10539061;28;20212;-63
2022/01/11 19:22:40;;;;;;;20.17;10.20;;;;;;;-3.29;100.00;98312.09;10538533;28;20253;-61
2022/01/11 19:27:42;;;;;;;18.10;8.80;;;;;;;-3.36;100.00;98321.59;10538525;28;20270;-62
2022/01/11 19:32:42;;;;;;;21.00;11.20;;;;;;;-3.49;100.00;98322.69;10538209;28;20228;-57
2022/01/11 19:37:44;;;;;;;17.83;10.20;;;;;;;-3.36;100.00;98324.16;10537826;28;20225;-61
2022/01/11 19:42:44;;;;;;;17.00;8.83;;;;;;;-3.41;100.00;98329.38;10537809;28;20255;-62
2022/01/11 19:47:44;;;;;;;19.87;9.80;;;;;;;-3.36;100.00;98336.97;10537658;28;20699;-64
2022/01/11 19:52:46;;;;;;;17.13;9.27;;;;;;;-3.60;100.00;98344.25;10537360;28;20202;-64
2022/01/11 19:57:48;;;;;;;17.77;10.03;;;;;;;-3.59;100.00;98330.56;10537425;28;20195;-65
2022/01/11 20:02:49;;;;;;;19.17;11.63;;;;;;;-3.58;100.00;98350.19;10536256;28;20308;-64
2022/01/11 20:07:49;;;;;;;15.33;7.80;;;;;;;-3.57;100.00;98348.47;10537281;28;20263;-61
2022/01/11 20:12:50;;;;;;;22.97;11.40;;;;;;;-3.60;100.00;98351.94;10536413;28;20206;-62
2022/01/11 20:17:54;;;;;;;19.97;10.63;;;;;;;-3.53;100.00;98352.66;10536881;28;20547;-62
2022/01/11 20:28:14;;;;;;;19.13;10.57;;;;;;;-3.79;100.00;98351.41;10536576;28;20190;-60
2022/01/11 20:33:14;;;;;;;19.33;9.63;;;;;;;-3.71;100.00;98342.75;10535924;28;20580;-63
2022/01/11 20:38:16;;;;;;;23.57;12.00;;;;;;;-3.62;100.00;98330.63;10535886;28;20222;-63
2022/01/11 20:43:16;;;;;;;20.63;10.40;;;;;;;-3.74;100.00;98333.41;10535781;28;20359;-61
2022/01/11 20:48:16;;;;;;;22.07;11.50;;;;;;;-3.59;100.00;98334.84;10535283;28;20740;-59
2022/01/11 20:53:20;;;;;;;18.47;9.03;;;;;;;-3.52;100.00;98327.88;10535461;28;20695;-64
2022/01/11 20:58:22;;;;;;;20.10;10.83;;;;;;;-3.58;100.00;98337.38;10535082;28;20550;-62
2022/01/11 21:03:24;;;;;;;16.07;9.53;;;;;;;-3.49;100.00;98331.25;10534464;28;20229;-61
2022/01/11 21:08:24;;;;;;;19.83;10.37;;;;;;;-3.43;100.00;98335.38;10535204;28;20187;-62
2022/01/11 21:13:29;;;;;;;21.20;10.43;;;;;;;-3.45;100.00;98335.41;10534785;28;20214;-61
2022/01/11 21:23:48;;;;;;;18.87;9.77;;;;;;;-3.36;100.00;98326.72;10534425;28;20281;-59
2022/01/11 21:28:50;;;;;;;23.10;10.90;;;;;;;-3.45;100.00;98329.47;10534699;28;20285;-61
2022/01/11 21:33:51;;;;;;;19.00;10.60;;;;;;;-3.55;100.00;98333.06;10534344;28;20207;-60
2022/01/11 21:38:51;;;;;;;18.70;10.97;;;;;;;-3.36;100.00;98344.66;10540987;28;20218;-60
2022/01/11 21:43:51;;;;;;;18.77;9.87;;;;;;;-3.32;100.00;98353.97;10517654;28;20222;-63
2022/01/11 21:48:52;;;;;;;14.77;8.57;;;;;;;-3.21;100.00;98358.06;10500672;28;20187;-59
2022/01/11 21:53:52;;;;;;;13.40;8.00;;;;;;;-3.10;100.00;98348.41;10525415;28;20293;-61
2022/01/11 21:58:52;;;;;;;15.57;7.57;;;;;;;-3.15;100.00;98347.69;10559874;28;20271;-64
2022/01/11 22:03:53;;;;;;;12.93;7.20;;;;;;;-3.04;100.00;98350.84;10582492;28;20313;-61
2022/01/11 22:08:53;;;;;;;8.20;5.43;;;;;;;-3.05;100.00;98341.47;10583670;28;20190;-60
2022/01/11 22:14:03;;;;;;;9.43;5.83;;;;;;;-2.93;100.00;98338.66;10583695;28;20216;-61
2022/01/11 22:19:03;;;;;;;10.33;5.17;;;;;;;-3.18;100.00;98338.31;10583930;28;20577;-64
2022/01/11 22:24:05;;;;;;;9.27;6.03;;;;;;;-3.23;100.00;98340.97;10583749;28;20202;-61
2022/01/11 22:29:06;;;;;;;10.30;6.27;;;;;;;-3.12;100.00;98339.94;10583865;28;20190;-62
2022/01/11 22:34:06;;;;;;;10.10;6.23;;;;;;;-3.15;100.00;98347.69;10583301;28;20202;-61
2022/01/11 22:39:07;;;;;;;10.33;6.17;;;;;;;-3.18;100.00;98343.44;10583611;28;20327;-61
2022/01/11 22:44:07;;;;;;;8.57;5.37;;;;;;;-3.18;100.00;98347.75;10583340;28;20202;-62
2022/01/11 22:49:08;;;;;;;10.33;6.50;;;;;;;-3.35;100.00;98336.09;10582788;28;20182;-62
2022/01/11 22:54:09;;;;;;;8.90;5.37;;;;;;;-3.45;100.00;98337.16;10582583;28;20218;-62
2022/01/11 22:59:10;;;;;;;10.50;6.03;;;;;;;-3.72;100.00;98334.25;10582437;28;20225;-60
2022/01/11 23:04:12;;;;;;;10.47;6.40;;;;;;;-3.96;100.00;98335.50;10581727;28;20233;-62